sensor_id;sensor_type;location;lat;lon;timestamp;P1;durP1;ratioP1;P2;durP2;ratioP2
51724;SDS011;37801;53.224;6.552;2022-11-20T00:00:50;20.85;;;12.38;;
51724;SDS011;37801;53.224;6.552;2022-11-20T00:03:16;19.20;;;13.07;;
51724;SDS011;37801;53.224;6.552;2022-11-20T00:05:42;19.75;;;11.65;;
51724;SDS011;37801;53.224;6.552;2022-11-20T00:08:09;17.75;;;11.30;;
51724;SDS011;37801;53.224;6.552;2022-11-20T00:10:38;18.58;;;12.05;;
51724;SDS011;37801;53.224;6.552;2022-11-20T00:13:05;17.85;;;11.52;;
51724;SDS011;37801;53.224;6.552;2022-11-20T00:15:32;18.30;;;11.57;;
51724;SDS011;37801;53.224;6.552;2022-11-20T00:17:58;20.38;;;12.05;;
51724;SDS011;37801;53.224;6.552;2022-11-20T00:20:23;20.40;;;13.05;;
51724;SDS011;37801;53.224;6.552;2022-11-20T00:22:49;17.63;;;11.32;;
51724;SDS011;37801;53.224;6.552;2022-11-20T00:25:16;18.67;;;11.13;;
51724;SDS011;37801;53.224;6.552;2022-11-20T00:27:42;18.98;;;11.52;;
51724;SDS011;37801;53.224;6.552;2022-11-20T00:30:08;19.15;;;11.60;;
51724;SDS011;37801;53.224;6.552;2022-11-20T00:32:34;17.83;;;11.48;;
51724;SDS011;37801;53.224;6.552;2022-11-20T00:34:59;17.98;;;11.27;;
51724;SDS011;37801;53.224;6.552;2022-11-20T00:37:25;19.42;;;11.38;;
51724;SDS011;37801;53.224;6.552;2022-11-20T00:39:51;17.30;;;11.80;;
51724;SDS011;37801;53.224;6.552;2022-11-20T00:42:17;24.95;;;15.82;;
51724;SDS011;37801;53.224;6.552;2022-11-20T00:44:43;24.42;;;15.43;;
51724;SDS011;37801;53.224;6.552;2022-11-20T00:47:09;21.52;;;13.95;;
51724;SDS011;37801;53.224;6.552;2022-11-20T00:49:35;23.02;;;13.07;;
51724;SDS011;37801;53.224;6.552;2022-11-20T00:52:00;20.17;;;12.65;;
51724;SDS011;37801;53.224;6.552;2022-11-20T00:54:26;18.77;;;12.45;;
51724;SDS011;37801;53.224;6.552;2022-11-20T00:56:55;18.70;;;11.77;;
51724;SDS011;37801;53.224;6.552;2022-11-20T00:59:20;17.85;;;11.88;;
51724;SDS011;37801;53.224;6.552;2022-11-20T01:01:46;19.25;;;12.45;;
51724;SDS011;37801;53.224;6.552;2022-11-20T01:04:12;19.65;;;12.23;;
51724;SDS011;37801;53.224;6.552;2022-11-20T01:06:38;19.33;;;12.70;;
51724;SDS011;37801;53.224;6.552;2022-11-20T01:09:06;20.60;;;12.50;;
51724;SDS011;37801;53.224;6.552;2022-11-20T01:11:34;18.95;;;12.63;;
51724;SDS011;37801;53.224;6.552;2022-11-20T01:14:02;18.10;;;11.73;;
51724;SDS011;37801;53.224;6.552;2022-11-20T01:16:30;20.40;;;11.73;;
51724;SDS011;37801;53.224;6.552;2022-11-20T01:19:02;20.35;;;12.63;;
51724;SDS011;37801;53.224;6.552;2022-11-20T01:21:31;19.10;;;12.48;;
51724;SDS011;37801;53.224;6.552;2022-11-20T01:23:59;19.15;;;12.90;;
51724;SDS011;37801;53.224;6.552;2022-11-20T01:26:28;19.55;;;12.50;;
51724;SDS011;37801;53.224;6.552;2022-11-20T01:28:58;19.30;;;12.10;;
51724;SDS011;37801;53.224;6.552;2022-11-20T01:33:55;16.30;;;11.18;;
51724;SDS011;37801;53.224;6.552;2022-11-20T01:36:23;18.17;;;12.02;;
51724;SDS011;37801;53.224;6.552;2022-11-20T01:38:51;19.45;;;12.27;;
51724;SDS011;37801;53.224;6.552;2022-11-20T01:41:21;17.88;;;12.30;;
51724;SDS011;37801;53.224;6.552;2022-11-20T01:44:06;19.70;;;12.52;;
51724;SDS011;37801;53.224;6.552;2022-11-20T01:46:37;17.83;;;12.05;;
51724;SDS011;37801;53.224;6.552;2022-11-20T01:49:15;20.42;;;13.20;;
51724;SDS011;37801;53.224;6.552;2022-11-20T01:51:52;18.27;;;12.05;;
51724;SDS011;37801;53.224;6.552;2022-11-20T01:54:31;25.80;;;13.93;;
51724;SDS011;37801;53.224;6.552;2022-11-20T01:57:02;19.02;;;12.50;;
51724;SDS011;37801;53.224;6.552;2022-11-20T01:59:31;21.17;;;13.05;;
51724;SDS011;37801;53.224;6.552;2022-11-20T02:01:58;20.33;;;13.30;;
51724;SDS011;37801;53.224;6.552;2022-11-20T02:04:24;19.85;;;12.68;;
51724;SDS011;37801;53.224;6.552;2022-11-20T02:07:00;20.13;;;13.10;;
51724;SDS011;37801;53.224;6.552;2022-11-20T02:09:27;19.95;;;12.82;;
51724;SDS011;37801;53.224;6.552;2022-11-20T02:11:54;20.98;;;13.52;;
51724;SDS011;37801;53.224;6.552;2022-11-20T02:14:21;18.77;;;12.60;;
51724;SDS011;37801;53.224;6.552;2022-11-20T02:16:48;20.35;;;13.65;;
51724;SDS011;37801;53.224;6.552;2022-11-20T02:19:17;22.30;;;13.35;;
51724;SDS011;37801;53.224;6.552;2022-11-20T02:24:29;22.33;;;13.43;;
51724;SDS011;37801;53.224;6.552;2022-11-20T02:27:08;19.65;;;13.52;;
51724;SDS011;37801;53.224;6.552;2022-11-20T02:32:06;22.40;;;14.13;;
51724;SDS011;37801;53.224;6.552;2022-11-20T02:34:42;20.23;;;12.98;;
51724;SDS011;37801;53.224;6.552;2022-11-20T02:37:07;20.52;;;13.35;;
51724;SDS011;37801;53.224;6.552;2022-11-20T02:39:33;20.33;;;13.48;;
51724;SDS011;37801;53.224;6.552;2022-11-20T02:42:00;20.25;;;12.63;;
51724;SDS011;37801;53.224;6.552;2022-11-20T02:44:26;19.95;;;12.13;;
51724;SDS011;37801;53.224;6.552;2022-11-20T02:46:52;21.30;;;12.45;;
51724;SDS011;37801;53.224;6.552;2022-11-20T02:49:17;20.08;;;12.50;;
51724;SDS011;37801;53.224;6.552;2022-11-20T02:51:43;20.52;;;13.45;;
51724;SDS011;37801;53.224;6.552;2022-11-20T02:54:09;20.48;;;13.50;;
51724;SDS011;37801;53.224;6.552;2022-11-20T02:56:37;20.60;;;13.55;;
51724;SDS011;37801;53.224;6.552;2022-11-20T02:59:03;21.48;;;13.43;;
51724;SDS011;37801;53.224;6.552;2022-11-20T03:01:29;20.63;;;13.05;;
51724;SDS011;37801;53.224;6.552;2022-11-20T03:03:55;19.55;;;12.60;;
51724;SDS011;37801;53.224;6.552;2022-11-20T03:06:21;21.52;;;13.73;;
51724;SDS011;37801;53.224;6.552;2022-11-20T03:08:47;18.85;;;12.13;;
51724;SDS011;37801;53.224;6.552;2022-11-20T03:11:12;21.08;;;12.10;;
51724;SDS011;37801;53.224;6.552;2022-11-20T03:13:38;19.92;;;12.43;;
51724;SDS011;37801;53.224;6.552;2022-11-20T03:16:08;18.08;;;12.20;;
51724;SDS011;37801;53.224;6.552;2022-11-20T03:18:36;21.65;;;13.18;;
51724;SDS011;37801;53.224;6.552;2022-11-20T03:21:03;19.45;;;12.43;;
51724;SDS011;37801;53.224;6.552;2022-11-20T03:23:29;20.63;;;13.18;;
51724;SDS011;37801;53.224;6.552;2022-11-20T03:26:07;18.17;;;12.30;;
51724;SDS011;37801;53.224;6.552;2022-11-20T03:28:37;21.90;;;13.73;;
51724;SDS011;37801;53.224;6.552;2022-11-20T03:31:10;20.35;;;12.60;;
51724;SDS011;37801;53.224;6.552;2022-11-20T03:33:38;21.50;;;12.60;;
51724;SDS011;37801;53.224;6.552;2022-11-20T03:36:05;21.33;;;13.32;;
51724;SDS011;37801;53.224;6.552;2022-11-20T03:38:33;19.58;;;13.45;;
51724;SDS011;37801;53.224;6.552;2022-11-20T03:41:03;22.10;;;12.75;;
51724;SDS011;37801;53.224;6.552;2022-11-20T03:43:33;20.88;;;13.38;;
51724;SDS011;37801;53.224;6.552;2022-11-20T03:45:59;22.40;;;13.88;;
51724;SDS011;37801;53.224;6.552;2022-11-20T03:48:25;19.27;;;13.00;;
51724;SDS011;37801;53.224;6.552;2022-11-20T03:50:52;19.15;;;13.30;;
51724;SDS011;37801;53.224;6.552;2022-11-20T03:53:18;19.67;;;13.20;;
51724;SDS011;37801;53.224;6.552;2022-11-20T03:55:45;20.90;;;13.73;;
51724;SDS011;37801;53.224;6.552;2022-11-20T03:58:15;20.38;;;12.98;;
51724;SDS011;37801;53.224;6.552;2022-11-20T04:00:41;21.30;;;12.75;;
51724;SDS011;37801;53.224;6.552;2022-11-20T04:03:06;22.83;;;13.82;;
51724;SDS011;37801;53.224;6.552;2022-11-20T04:05:32;19.08;;;12.85;;
51724;SDS011;37801;53.224;6.552;2022-11-20T04:07:59;18.05;;;13.13;;
51724;SDS011;37801;53.224;6.552;2022-11-20T04:10:25;21.35;;;12.98;;
51724;SDS011;37801;53.224;6.552;2022-11-20T04:12:50;22.52;;;13.40;;
51724;SDS011;37801;53.224;6.552;2022-11-20T04:15:16;20.60;;;12.23;;
51724;SDS011;37801;53.224;6.552;2022-11-20T04:17:42;21.40;;;12.55;;
51724;SDS011;37801;53.224;6.552;2022-11-20T04:20:08;18.52;;;11.85;;
51724;SDS011;37801;53.224;6.552;2022-11-20T04:22:34;17.13;;;11.05;;
51724;SDS011;37801;53.224;6.552;2022-11-20T04:25:00;19.15;;;12.38;;
51724;SDS011;37801;53.224;6.552;2022-11-20T04:27:25;21.08;;;12.52;;
51724;SDS011;37801;53.224;6.552;2022-11-20T04:29:51;19.10;;;12.80;;
51724;SDS011;37801;53.224;6.552;2022-11-20T04:32:17;18.58;;;11.85;;
51724;SDS011;37801;53.224;6.552;2022-11-20T04:34:42;19.38;;;12.27;;
51724;SDS011;37801;53.224;6.552;2022-11-20T04:37:08;19.55;;;12.73;;
51724;SDS011;37801;53.224;6.552;2022-11-20T04:39:34;20.27;;;12.27;;
51724;SDS011;37801;53.224;6.552;2022-11-20T04:41:59;19.50;;;12.90;;
51724;SDS011;37801;53.224;6.552;2022-11-20T04:44:44;20.13;;;13.18;;
51724;SDS011;37801;53.224;6.552;2022-11-20T04:47:09;20.58;;;13.48;;
51724;SDS011;37801;53.224;6.552;2022-11-20T04:49:35;23.52;;;13.95;;
51724;SDS011;37801;53.224;6.552;2022-11-20T04:52:01;21.95;;;14.13;;
51724;SDS011;37801;53.224;6.552;2022-11-20T04:54:26;24.90;;;14.90;;
51724;SDS011;37801;53.224;6.552;2022-11-20T04:56:52;24.02;;;14.68;;
51724;SDS011;37801;53.224;6.552;2022-11-20T04:59:18;20.80;;;13.77;;
51724;SDS011;37801;53.224;6.552;2022-11-20T05:01:43;18.88;;;12.57;;
51724;SDS011;37801;53.224;6.552;2022-11-20T05:04:09;19.80;;;12.90;;
51724;SDS011;37801;53.224;6.552;2022-11-20T05:06:35;17.00;;;11.90;;
51724;SDS011;37801;53.224;6.552;2022-11-20T05:09:01;18.65;;;12.07;;
51724;SDS011;37801;53.224;6.552;2022-11-20T05:11:27;20.77;;;12.77;;
51724;SDS011;37801;53.224;6.552;2022-11-20T05:13:58;16.85;;;11.25;;
51724;SDS011;37801;53.224;6.552;2022-11-20T05:16:24;17.23;;;12.02;;
51724;SDS011;37801;53.224;6.552;2022-11-20T05:18:50;19.13;;;11.75;;
51724;SDS011;37801;53.224;6.552;2022-11-20T05:21:18;18.70;;;12.30;;
51724;SDS011;37801;53.224;6.552;2022-11-20T05:23:44;16.75;;;11.25;;
51724;SDS011;37801;53.224;6.552;2022-11-20T05:26:15;18.60;;;11.48;;
51724;SDS011;37801;53.224;6.552;2022-11-20T05:28:42;18.08;;;12.63;;
51724;SDS011;37801;53.224;6.552;2022-11-20T05:31:09;18.27;;;11.25;;
51724;SDS011;37801;53.224;6.552;2022-11-20T05:33:36;18.08;;;11.63;;
51724;SDS011;37801;53.224;6.552;2022-11-20T05:36:04;18.35;;;11.32;;
51724;SDS011;37801;53.224;6.552;2022-11-20T05:38:30;16.13;;;10.20;;
51724;SDS011;37801;53.224;6.552;2022-11-20T05:41:02;17.35;;;11.63;;
51724;SDS011;37801;53.224;6.552;2022-11-20T05:43:42;16.20;;;11.25;;
51724;SDS011;37801;53.224;6.552;2022-11-20T05:46:10;17.85;;;11.55;;
51724;SDS011;37801;53.224;6.552;2022-11-20T05:48:39;18.88;;;11.35;;
51724;SDS011;37801;53.224;6.552;2022-11-20T05:51:07;18.10;;;12.07;;
51724;SDS011;37801;53.224;6.552;2022-11-20T05:53:33;16.48;;;10.68;;
51724;SDS011;37801;53.224;6.552;2022-11-20T05:56:00;16.02;;;10.52;;
51724;SDS011;37801;53.224;6.552;2022-11-20T05:58:29;17.67;;;11.07;;
51724;SDS011;37801;53.224;6.552;2022-11-20T06:01:02;16.95;;;11.77;;
51724;SDS011;37801;53.224;6.552;2022-11-20T06:03:47;15.32;;;10.82;;
51724;SDS011;37801;53.224;6.552;2022-11-20T06:06:16;16.90;;;12.15;;
51724;SDS011;37801;53.224;6.552;2022-11-20T06:08:42;17.10;;;11.32;;
51724;SDS011;37801;53.224;6.552;2022-11-20T06:11:09;17.45;;;11.43;;
51724;SDS011;37801;53.224;6.552;2022-11-20T06:13:37;17.08;;;11.48;;
51724;SDS011;37801;53.224;6.552;2022-11-20T06:16:04;15.77;;;11.18;;
51724;SDS011;37801;53.224;6.552;2022-11-20T06:18:30;17.98;;;11.82;;
51724;SDS011;37801;53.224;6.552;2022-11-20T06:20:59;18.75;;;11.75;;
51724;SDS011;37801;53.224;6.552;2022-11-20T06:23:27;15.07;;;10.82;;
51724;SDS011;37801;53.224;6.552;2022-11-20T06:25:54;17.20;;;11.80;;
51724;SDS011;37801;53.224;6.552;2022-11-20T06:28:19;16.70;;;10.93;;
51724;SDS011;37801;53.224;6.552;2022-11-20T06:30:45;15.52;;;10.80;;
51724;SDS011;37801;53.224;6.552;2022-11-20T06:33:11;16.60;;;10.50;;
51724;SDS011;37801;53.224;6.552;2022-11-20T06:35:36;17.17;;;10.82;;
51724;SDS011;37801;53.224;6.552;2022-11-20T06:38:02;17.52;;;11.00;;
51724;SDS011;37801;53.224;6.552;2022-11-20T06:40:28;15.27;;;10.73;;
51724;SDS011;37801;53.224;6.552;2022-11-20T06:42:54;15.52;;;10.40;;
51724;SDS011;37801;53.224;6.552;2022-11-20T06:45:20;14.90;;;10.27;;
51724;SDS011;37801;53.224;6.552;2022-11-20T06:47:46;16.67;;;10.75;;
51724;SDS011;37801;53.224;6.552;2022-11-20T06:50:12;16.52;;;10.45;;
51724;SDS011;37801;53.224;6.552;2022-11-20T06:52:38;15.35;;;10.05;;
51724;SDS011;37801;53.224;6.552;2022-11-20T06:55:04;16.48;;;10.45;;
51724;SDS011;37801;53.224;6.552;2022-11-20T06:57:30;16.67;;;10.90;;
51724;SDS011;37801;53.224;6.552;2022-11-20T06:59:55;17.20;;;11.52;;
51724;SDS011;37801;53.224;6.552;2022-11-20T07:02:21;17.10;;;10.75;;
51724;SDS011;37801;53.224;6.552;2022-11-20T07:04:46;17.25;;;10.18;;
51724;SDS011;37801;53.224;6.552;2022-11-20T07:07:12;15.30;;;10.32;;
51724;SDS011;37801;53.224;6.552;2022-11-20T07:09:38;16.65;;;11.15;;
51724;SDS011;37801;53.224;6.552;2022-11-20T07:12:04;14.95;;;10.82;;
51724;SDS011;37801;53.224;6.552;2022-11-20T07:14:30;14.95;;;9.73;;
51724;SDS011;37801;53.224;6.552;2022-11-20T07:16:55;15.23;;;10.48;;
51724;SDS011;37801;53.224;6.552;2022-11-20T07:19:21;14.68;;;9.75;;
51724;SDS011;37801;53.224;6.552;2022-11-20T07:21:47;16.20;;;11.15;;
51724;SDS011;37801;53.224;6.552;2022-11-20T07:24:12;18.23;;;11.18;;
51724;SDS011;37801;53.224;6.552;2022-11-20T07:26:38;15.55;;;10.32;;
51724;SDS011;37801;53.224;6.552;2022-11-20T07:29:04;15.40;;;10.40;;
51724;SDS011;37801;53.224;6.552;2022-11-20T07:31:29;16.15;;;10.68;;
51724;SDS011;37801;53.224;6.552;2022-11-20T07:33:55;16.52;;;11.20;;
51724;SDS011;37801;53.224;6.552;2022-11-20T07:36:21;16.40;;;11.23;;
51724;SDS011;37801;53.224;6.552;2022-11-20T07:38:46;18.42;;;10.77;;
51724;SDS011;37801;53.224;6.552;2022-11-20T07:41:12;16.50;;;11.02;;
51724;SDS011;37801;53.224;6.552;2022-11-20T07:43:38;15.77;;;10.80;;
51724;SDS011;37801;53.224;6.552;2022-11-20T07:46:03;16.10;;;11.10;;
51724;SDS011;37801;53.224;6.552;2022-11-20T07:48:29;15.73;;;10.82;;
51724;SDS011;37801;53.224;6.552;2022-11-20T07:50:55;15.38;;;10.43;;
51724;SDS011;37801;53.224;6.552;2022-11-20T07:53:22;14.88;;;10.25;;
51724;SDS011;37801;53.224;6.552;2022-11-20T07:55:48;16.95;;;11.52;;
51724;SDS011;37801;53.224;6.552;2022-11-20T07:58:14;15.77;;;10.85;;
51724;SDS011;37801;53.224;6.552;2022-11-20T08:00:40;16.17;;;10.60;;
51724;SDS011;37801;53.224;6.552;2022-11-20T08:03:06;16.02;;;11.13;;
51724;SDS011;37801;53.224;6.552;2022-11-20T08:05:32;15.32;;;10.20;;
51724;SDS011;37801;53.224;6.552;2022-11-20T08:07:58;17.80;;;10.57;;
51724;SDS011;37801;53.224;6.552;2022-11-20T08:10:24;16.17;;;10.80;;
51724;SDS011;37801;53.224;6.552;2022-11-20T08:12:50;15.82;;;10.90;;
51724;SDS011;37801;53.224;6.552;2022-11-20T08:15:36;17.75;;;11.20;;
51724;SDS011;37801;53.224;6.552;2022-11-20T08:18:04;16.40;;;10.70;;
51724;SDS011;37801;53.224;6.552;2022-11-20T08:20:37;17.27;;;11.15;;
51724;SDS011;37801;53.224;6.552;2022-11-20T08:23:04;16.67;;;10.75;;
51724;SDS011;37801;53.224;6.552;2022-11-20T08:25:31;18.50;;;11.60;;
51724;SDS011;37801;53.224;6.552;2022-11-20T08:28:01;22.25;;;12.00;;
51724;SDS011;37801;53.224;6.552;2022-11-20T08:30:29;17.42;;;11.52;;
51724;SDS011;37801;53.224;6.552;2022-11-20T08:33:00;17.45;;;12.00;;
51724;SDS011;37801;53.224;6.552;2022-11-20T08:35:34;18.45;;;12.18;;
51724;SDS011;37801;53.224;6.552;2022-11-20T08:38:01;19.83;;;11.32;;
51724;SDS011;37801;53.224;6.552;2022-11-20T08:40:28;18.58;;;11.07;;
51724;SDS011;37801;53.224;6.552;2022-11-20T08:42:54;20.45;;;11.65;;
51724;SDS011;37801;53.224;6.552;2022-11-20T08:45:19;17.85;;;12.13;;
51724;SDS011;37801;53.224;6.552;2022-11-20T08:47:45;17.60;;;11.80;;
51724;SDS011;37801;53.224;6.552;2022-11-20T08:50:12;18.20;;;11.80;;
51724;SDS011;37801;53.224;6.552;2022-11-20T08:52:39;16.98;;;11.40;;
51724;SDS011;37801;53.224;6.552;2022-11-20T08:55:05;17.58;;;11.10;;
51724;SDS011;37801;53.224;6.552;2022-11-20T08:57:32;16.08;;;10.80;;
51724;SDS011;37801;53.224;6.552;2022-11-20T08:59:58;16.42;;;10.80;;
51724;SDS011;37801;53.224;6.552;2022-11-20T09:02:24;16.30;;;11.15;;
51724;SDS011;37801;53.224;6.552;2022-11-20T09:04:50;16.90;;;11.93;;
51724;SDS011;37801;53.224;6.552;2022-11-20T09:07:16;16.08;;;10.95;;
51724;SDS011;37801;53.224;6.552;2022-11-20T09:09:41;16.48;;;11.13;;
51724;SDS011;37801;53.224;6.552;2022-11-20T09:12:07;17.88;;;11.05;;
51724;SDS011;37801;53.224;6.552;2022-11-20T09:14:33;16.98;;;11.82;;
51724;SDS011;37801;53.224;6.552;2022-11-20T09:16:58;16.73;;;11.48;;
51724;SDS011;37801;53.224;6.552;2022-11-20T09:19:24;18.45;;;12.35;;
51724;SDS011;37801;53.224;6.552;2022-11-20T09:21:50;16.83;;;11.60;;
51724;SDS011;37801;53.224;6.552;2022-11-20T09:24:16;19.77;;;12.73;;
51724;SDS011;37801;53.224;6.552;2022-11-20T09:26:43;20.63;;;12.73;;
51724;SDS011;37801;53.224;6.552;2022-11-20T09:29:08;17.20;;;11.80;;
51724;SDS011;37801;53.224;6.552;2022-11-20T09:31:34;16.08;;;11.50;;
51724;SDS011;37801;53.224;6.552;2022-11-20T09:34:00;18.02;;;12.20;;
51724;SDS011;37801;53.224;6.552;2022-11-20T09:36:26;19.23;;;12.00;;
51724;SDS011;37801;53.224;6.552;2022-11-20T09:38:51;17.40;;;11.70;;
51724;SDS011;37801;53.224;6.552;2022-11-20T09:47:01;16.45;;;11.85;;
51724;SDS011;37801;53.224;6.552;2022-11-20T09:52:52;18.55;;;12.48;;
51724;SDS011;37801;53.224;6.552;2022-11-20T09:55:39;18.50;;;11.95;;
51724;SDS011;37801;53.224;6.552;2022-11-20T09:58:06;20.02;;;12.10;;
51724;SDS011;37801;53.224;6.552;2022-11-20T10:00:38;16.00;;;11.40;;
51724;SDS011;37801;53.224;6.552;2022-11-20T10:05:44;19.13;;;11.70;;
51724;SDS011;37801;53.224;6.552;2022-11-20T10:25:00;17.75;;;11.38;;
51724;SDS011;37801;53.224;6.552;2022-11-20T10:30:18;17.40;;;11.50;;
51724;SDS011;37801;53.224;6.552;2022-11-20T10:32:52;17.63;;;11.98;;
51724;SDS011;37801;53.224;6.552;2022-11-20T10:35:31;19.25;;;11.57;;
51724;SDS011;37801;53.224;6.552;2022-11-20T10:38:23;16.40;;;11.32;;
51724;SDS011;37801;53.224;6.552;2022-11-20T10:43:44;19.08;;;11.52;;
51724;SDS011;37801;53.224;6.552;2022-11-20T10:46:14;15.43;;;11.15;;
51724;SDS011;37801;53.224;6.552;2022-11-20T10:48:43;16.33;;;11.13;;
51724;SDS011;37801;53.224;6.552;2022-11-20T10:56:39;14.00;;;10.60;;
51724;SDS011;37801;53.224;6.552;2022-11-20T11:04:50;15.45;;;10.93;;
51724;SDS011;37801;53.224;6.552;2022-11-20T11:09:55;15.38;;;10.32;;
51724;SDS011;37801;53.224;6.552;2022-11-20T11:12:22;17.45;;;11.00;;
51724;SDS011;37801;53.224;6.552;2022-11-20T11:14:51;17.00;;;10.52;;
51724;SDS011;37801;53.224;6.552;2022-11-20T11:20:00;14.85;;;9.95;;
51724;SDS011;37801;53.224;6.552;2022-11-20T11:22:43;13.52;;;9.35;;
51724;SDS011;37801;53.224;6.552;2022-11-20T11:28:00;14.93;;;10.32;;
51724;SDS011;37801;53.224;6.552;2022-11-20T11:30:28;13.63;;;9.32;;
51724;SDS011;37801;53.224;6.552;2022-11-20T11:33:03;15.63;;;10.20;;
51724;SDS011;37801;53.224;6.552;2022-11-20T11:35:30;14.43;;;9.88;;
51724;SDS011;37801;53.224;6.552;2022-11-20T11:38:04;16.23;;;10.25;;
51724;SDS011;37801;53.224;6.552;2022-11-20T11:40:35;15.40;;;10.38;;
51724;SDS011;37801;53.224;6.552;2022-11-20T11:43:04;13.68;;;9.40;;
51724;SDS011;37801;53.224;6.552;2022-11-20T11:45:53;13.65;;;9.38;;
51724;SDS011;37801;53.224;6.552;2022-11-20T11:48:20;12.68;;;8.85;;
51724;SDS011;37801;53.224;6.552;2022-11-20T11:50:50;12.55;;;8.77;;
51724;SDS011;37801;53.224;6.552;2022-11-20T11:53:21;12.93;;;8.52;;
51724;SDS011;37801;53.224;6.552;2022-11-20T12:04:38;12.48;;;8.23;;
51724;SDS011;37801;53.224;6.552;2022-11-20T12:06:47;11.75;;;8.52;;
51724;SDS011;37801;53.224;6.552;2022-11-20T12:09:18;12.27;;;8.93;;
51724;SDS011;37801;53.224;6.552;2022-11-20T12:11:59;13.63;;;9.13;;
51724;SDS011;37801;53.224;6.552;2022-11-20T12:14:35;13.43;;;8.88;;
51724;SDS011;37801;53.224;6.552;2022-11-20T12:17:04;12.35;;;8.15;;
51724;SDS011;37801;53.224;6.552;2022-11-20T12:19:30;14.10;;;7.65;;
51724;SDS011;37801;53.224;6.552;2022-11-20T12:22:41;13.27;;;8.23;;
51724;SDS011;37801;53.224;6.552;2022-11-20T12:24:55;10.90;;;7.50;;
51724;SDS011;37801;53.224;6.552;2022-11-20T12:30:03;11.00;;;7.05;;
51724;SDS011;37801;53.224;6.552;2022-11-20T12:46:26;10.15;;;7.20;;
51724;SDS011;37801;53.224;6.552;2022-11-20T12:49:10;10.93;;;7.43;;
51724;SDS011;37801;53.224;6.552;2022-11-20T13:05:20;10.52;;;7.28;;
51724;SDS011;37801;53.224;6.552;2022-11-20T13:07:53;8.93;;;6.32;;
51724;SDS011;37801;53.224;6.552;2022-11-20T13:13:16;9.70;;;6.72;;
51724;SDS011;37801;53.224;6.552;2022-11-20T13:19:04;11.20;;;7.20;;
51724;SDS011;37801;53.224;6.552;2022-11-20T13:21:35;10.10;;;6.85;;
51724;SDS011;37801;53.224;6.552;2022-11-20T13:26:32;8.35;;;6.43;;
51724;SDS011;37801;53.224;6.552;2022-11-20T13:29:00;11.15;;;7.05;;
51724;SDS011;37801;53.224;6.552;2022-11-20T13:31:35;9.50;;;6.82;;
51724;SDS011;37801;53.224;6.552;2022-11-20T13:34:05;12.40;;;8.07;;
51724;SDS011;37801;53.224;6.552;2022-11-20T13:36:32;10.48;;;7.53;;
51724;SDS011;37801;53.224;6.552;2022-11-20T13:39:00;11.27;;;8.05;;
51724;SDS011;37801;53.224;6.552;2022-11-20T13:43:53;11.45;;;7.95;;
51724;SDS011;37801;53.224;6.552;2022-11-20T13:46:23;10.73;;;7.30;;
51724;SDS011;37801;53.224;6.552;2022-11-20T13:49:05;10.07;;;7.45;;
51724;SDS011;37801;53.224;6.552;2022-11-20T13:59:46;11.35;;;7.95;;
51724;SDS011;37801;53.224;6.552;2022-11-20T14:02:18;10.05;;;7.05;;
51724;SDS011;37801;53.224;6.552;2022-11-20T14:04:50;10.90;;;7.53;;
51724;SDS011;37801;53.224;6.552;2022-11-20T14:07:18;11.20;;;7.88;;
51724;SDS011;37801;53.224;6.552;2022-11-20T14:09:53;11.60;;;7.65;;
51724;SDS011;37801;53.224;6.552;2022-11-20T14:12:22;11.38;;;7.63;;
51724;SDS011;37801;53.224;6.552;2022-11-20T14:14:55;12.10;;;7.78;;
51724;SDS011;37801;53.224;6.552;2022-11-20T14:19:58;11.55;;;7.45;;
51724;SDS011;37801;53.224;6.552;2022-11-20T14:22:37;14.48;;;9.40;;
51724;SDS011;37801;53.224;6.552;2022-11-20T14:27:47;14.30;;;8.20;;
51724;SDS011;37801;53.224;6.552;2022-11-20T14:30:21;11.90;;;8.65;;
51724;SDS011;37801;53.224;6.552;2022-11-20T14:32:54;13.55;;;9.40;;
51724;SDS011;37801;53.224;6.552;2022-11-20T14:35:27;12.82;;;8.82;;
51724;SDS011;37801;53.224;6.552;2022-11-20T14:38:00;12.98;;;8.35;;
51724;SDS011;37801;53.224;6.552;2022-11-20T14:40:28;12.60;;;8.70;;
51724;SDS011;37801;53.224;6.552;2022-11-20T14:42:56;12.55;;;8.77;;
51724;SDS011;37801;53.224;6.552;2022-11-20T14:45:24;11.93;;;8.07;;
51724;SDS011;37801;53.224;6.552;2022-11-20T14:47:55;12.07;;;8.23;;
51724;SDS011;37801;53.224;6.552;2022-11-20T14:50:24;15.48;;;8.77;;
51724;SDS011;37801;53.224;6.552;2022-11-20T14:52:54;11.65;;;7.85;;
51724;SDS011;37801;53.224;6.552;2022-11-20T14:55:55;11.15;;;7.45;;
51724;SDS011;37801;53.224;6.552;2022-11-20T14:58:21;13.15;;;7.55;;
51724;SDS011;37801;53.224;6.552;2022-11-20T15:00:59;11.48;;;7.68;;
51724;SDS011;37801;53.224;6.552;2022-11-20T15:03:35;11.63;;;8.02;;
51724;SDS011;37801;53.224;6.552;2022-11-20T15:06:04;10.57;;;7.05;;
51724;SDS011;37801;53.224;6.552;2022-11-20T15:08:32;11.90;;;7.97;;
51724;SDS011;37801;53.224;6.552;2022-11-20T15:10:59;11.63;;;8.20;;
51724;SDS011;37801;53.224;6.552;2022-11-20T15:16:02;11.80;;;7.50;;
51724;SDS011;37801;53.224;6.552;2022-11-20T15:18:36;11.40;;;7.95;;
51724;SDS011;37801;53.224;6.552;2022-11-20T15:21:07;12.35;;;7.72;;
51724;SDS011;37801;53.224;6.552;2022-11-20T15:23:36;12.05;;;8.20;;
51724;SDS011;37801;53.224;6.552;2022-11-20T15:26:04;13.02;;;8.63;;
51724;SDS011;37801;53.224;6.552;2022-11-20T15:28:33;12.35;;;8.38;;
51724;SDS011;37801;53.224;6.552;2022-11-20T15:31:02;13.85;;;8.45;;
51724;SDS011;37801;53.224;6.552;2022-11-20T15:33:29;14.13;;;9.20;;
51724;SDS011;37801;53.224;6.552;2022-11-20T15:35:56;18.65;;;9.57;;
51724;SDS011;37801;53.224;6.552;2022-11-20T15:38:22;16.17;;;9.30;;
51724;SDS011;37801;53.224;6.552;2022-11-20T15:40:47;13.50;;;8.90;;
51724;SDS011;37801;53.224;6.552;2022-11-20T15:43:13;14.40;;;9.88;;
51724;SDS011;37801;53.224;6.552;2022-11-20T15:48:16;16.08;;;10.23;;
51724;SDS011;37801;53.224;6.552;2022-11-20T15:51:02;15.50;;;10.25;;
51724;SDS011;37801;53.224;6.552;2022-11-20T15:53:35;18.00;;;10.50;;
51724;SDS011;37801;53.224;6.552;2022-11-20T15:56:05;13.07;;;9.15;;
51724;SDS011;37801;53.224;6.552;2022-11-20T15:58:31;12.98;;;9.50;;
51724;SDS011;37801;53.224;6.552;2022-11-20T16:00:57;16.15;;;9.20;;
51724;SDS011;37801;53.224;6.552;2022-11-20T16:03:23;13.02;;;9.27;;
51724;SDS011;37801;53.224;6.552;2022-11-20T16:05:49;14.05;;;9.13;;
51724;SDS011;37801;53.224;6.552;2022-11-20T16:08:14;15.45;;;10.10;;
51724;SDS011;37801;53.224;6.552;2022-11-20T16:10:40;14.77;;;9.45;;
51724;SDS011;37801;53.224;6.552;2022-11-20T16:13:13;16.55;;;9.95;;
51724;SDS011;37801;53.224;6.552;2022-11-20T16:16:01;15.80;;;10.20;;
51724;SDS011;37801;53.224;6.552;2022-11-20T16:18:34;15.10;;;10.35;;
51724;SDS011;37801;53.224;6.552;2022-11-20T16:20:59;19.83;;;12.32;;
51724;SDS011;37801;53.224;6.552;2022-11-20T16:23:26;19.00;;;11.82;;
51724;SDS011;37801;53.224;6.552;2022-11-20T16:25:51;18.10;;;12.18;;
51724;SDS011;37801;53.224;6.552;2022-11-20T16:28:17;19.55;;;11.88;;
51724;SDS011;37801;53.224;6.552;2022-11-20T16:30:43;17.73;;;11.88;;
51724;SDS011;37801;53.224;6.552;2022-11-20T16:33:10;18.88;;;12.40;;
51724;SDS011;37801;53.224;6.552;2022-11-20T16:35:37;19.30;;;12.65;;
51724;SDS011;37801;53.224;6.552;2022-11-20T16:38:02;19.90;;;12.80;;
51724;SDS011;37801;53.224;6.552;2022-11-20T16:40:28;23.80;;;14.27;;
51724;SDS011;37801;53.224;6.552;2022-11-20T16:42:54;22.20;;;13.32;;